createdAt,value
2023-01-22T00:02:58.329Z,72.57
2023-01-22T00:08:19.992Z,72.78
2023-01-22T00:13:41.232Z,72.85
2023-01-22T00:19:02.613Z,72.38
2023-01-22T00:24:23.552Z,72.87
2023-01-22T00:29:44.230Z,72.65
2023-01-22T00:35:05.330Z,72.58
2023-01-22T00:40:26.133Z,72.89
2023-01-22T00:45:46.849Z,72.56
2023-01-22T00:51:13.111Z,72.25
2023-01-22T00:56:34.102Z,72.34
2023-01-22T01:01:54.867Z,72.52
2023-01-22T01:07:15.493Z,73.04
2023-01-22T01:12:38.330Z,72.67
2023-01-22T01:17:58.904Z,72.95
2023-01-22T01:23:19.678Z,73.30
2023-01-22T01:28:41.617Z,72.90
2023-01-22T01:34:03.159Z,72.78
2023-01-22T01:39:23.976Z,73.15
2023-01-22T01:44:44.614Z,72.68
2023-01-22T01:50:06.055Z,73.20
2023-01-22T01:55:29.824Z,72.84
2023-01-22T02:00:54.005Z,72.82
2023-01-22T02:06:17.332Z,72.50
2023-01-22T02:11:39.597Z,72.83
2023-01-22T02:17:13.558Z,72.98
2023-01-22T02:22:37.930Z,72.92
2023-01-22T02:27:58.625Z,72.71
2023-01-22T02:33:19.637Z,72.69
2023-01-22T02:38:40.671Z,72.61
2023-01-22T02:44:02.093Z,73.11
2023-01-22T02:49:23.005Z,73.04
2023-01-22T02:54:44.525Z,72.77
2023-01-22T03:00:06.821Z,72.70
2023-01-22T03:05:27.937Z,72.87
2023-01-22T03:10:49.658Z,72.80
2023-01-22T03:16:29.356Z,73.04
2023-01-22T03:21:50.117Z,72.72
2023-01-22T03:27:10.979Z,72.69
2023-01-22T03:32:32.058Z,72.36
2023-01-22T03:37:53.286Z,72.31
2023-01-22T03:43:14.400Z,72.17
2023-01-22T03:48:35.133Z,72.35
2023-01-22T03:53:55.926Z,71.31
2023-01-22T03:59:18.834Z,71.61
2023-01-22T04:04:40.039Z,71.84
2023-01-22T04:10:02.242Z,71.77
2023-01-22T04:15:24.496Z,71.84
2023-01-22T04:20:52.155Z,71.80
2023-01-22T04:26:25.050Z,72.34
2023-01-22T04:31:47.815Z,72.42
2023-01-22T04:37:38.265Z,72.92
2023-01-22T04:43:07.577Z,72.44
2023-01-22T04:48:28.775Z,72.58
2023-01-22T04:53:50.515Z,72.56
2023-01-22T04:59:11.344Z,72.59
2023-01-22T05:04:33.207Z,72.70
2023-01-22T05:09:54.156Z,72.37
2023-01-22T05:15:24.162Z,72.69
2023-01-22T05:20:47.653Z,72.58
2023-01-22T05:26:10.033Z,73.16
2023-01-22T05:31:35.469Z,73.07
2023-01-22T05:36:58.620Z,73.05
2023-01-22T05:42:21.607Z,73.09
2023-01-22T05:47:44.373Z,72.92
2023-01-22T05:53:17.945Z,72.96
2023-01-22T05:58:38.657Z,72.50
2023-01-22T06:04:00.411Z,72.44
2023-01-22T06:09:21.590Z,72.74
2023-01-22T06:14:42.579Z,72.73
2023-01-22T06:20:06.335Z,72.42
2023-01-22T06:25:27.099Z,72.36
2023-01-22T06:31:08.025Z,71.83
2023-01-22T06:36:30.310Z,72.50
2023-01-22T06:41:52.515Z,72.44
2023-01-22T06:47:13.376Z,72.50
2023-01-22T06:52:34.213Z,72.77
2023-01-22T06:57:55.877Z,72.83
2023-01-22T07:03:16.873Z,73.18
2023-01-22T07:08:37.739Z,73.00
2023-01-22T07:13:58.743Z,73.12
2023-01-22T07:19:19.529Z,73.27
2023-01-22T07:24:40.187Z,73.25
2023-01-22T07:30:01.117Z,73.46
2023-01-22T07:35:22.012Z,73.48
2023-01-22T07:40:42.730Z,73.54
2023-01-22T07:46:05.315Z,72.96
2023-01-22T07:51:26.412Z,72.90
2023-01-22T07:56:47.787Z,73.12
2023-01-22T08:02:15.569Z,72.83
2023-01-22T08:07:36.601Z,73.32
2023-01-22T08:12:57.268Z,73.24
2023-01-22T08:18:20.392Z,72.61
2023-01-22T08:23:46.097Z,73.22
2023-01-22T08:29:08.796Z,73.27
2023-01-22T08:34:29.564Z,73.11
2023-01-22T08:39:50.689Z,73.21
2023-01-22T08:45:11.654Z,73.15
2023-01-22T08:50:32.536Z,73.46
2023-01-22T08:55:53.372Z,73.54
2023-01-22T09:01:16.832Z,73.13
2023-01-22T09:06:40.004Z,73.25
2023-01-22T09:12:01.025Z,73.38
2023-01-22T09:17:21.667Z,73.37
2023-01-22T09:22:45.402Z,77.45
2023-01-22T09:28:08.838Z,73.36
2023-01-22T09:33:29.784Z,72.62
2023-01-22T09:38:51.311Z,72.85
2023-01-22T09:44:12.164Z,73.04
2023-01-22T09:49:53.008Z,72.93
2023-01-22T09:55:17.264Z,72.96
2023-01-22T10:00:39.697Z,73.08
2023-01-22T10:06:06.627Z,72.92
2023-01-22T10:11:27.314Z,73.15
2023-01-22T10:16:49.482Z,72.93
2023-01-22T10:22:22.513Z,72.92
2023-01-22T10:27:45.876Z,73.15
2023-01-22T10:33:07.061Z,73.13
2023-01-22T10:38:30.901Z,72.86
2023-01-22T10:43:51.853Z,73.23
2023-01-22T10:49:22.422Z,73.47
2023-01-22T10:54:48.240Z,76.28
2023-01-22T11:00:15.999Z,73.48
2023-01-22T11:05:37.499Z,72.89
2023-01-22T11:11:06.731Z,73.29
2023-01-22T11:16:32.165Z,73.46
2023-01-22T11:21:57.585Z,73.42
2023-01-22T11:27:34.188Z,73.38
2023-01-22T11:33:13.296Z,73.80
2023-01-22T11:39:11.741Z,73.72
2023-01-22T11:44:47.911Z,73.63
2023-01-22T11:50:30.393Z,73.96
2023-01-22T11:56:16.437Z,73.50
2023-01-22T12:01:52.535Z,73.83
2023-01-22T12:07:32.321Z,73.57
2023-01-22T12:13:13.216Z,73.81
2023-01-22T12:18:52.716Z,73.90
2023-01-22T12:24:21.997Z,74.28
2023-01-22T12:29:52.587Z,73.61
2023-01-22T12:35:19.324Z,73.93
2023-01-22T12:40:46.469Z,73.81
2023-01-22T12:46:26.069Z,73.39
2023-01-22T12:51:49.922Z,73.40
2023-01-22T12:57:15.568Z,74.21
2023-01-22T13:02:38.904Z,74.12
2023-01-22T13:08:06.871Z,73.73
2023-01-22T13:13:35.633Z,73.55
2023-01-22T13:18:59.834Z,73.78
2023-01-22T13:24:21.799Z,73.22
2023-01-22T13:29:42.734Z,73.94
2023-01-22T13:35:05.951Z,73.67
2023-01-22T13:40:31.561Z,73.79
2023-01-22T13:45:57.023Z,73.88
2023-01-22T13:51:21.780Z,73.87
2023-01-22T13:56:42.521Z,73.85
2023-01-22T14:02:24.520Z,73.56
2023-01-22T14:07:45.107Z,74.19
2023-01-22T14:13:11.248Z,76.90
2023-01-22T14:18:32.380Z,74.08
2023-01-22T14:23:53.075Z,73.77
2023-01-22T14:29:13.883Z,73.64
2023-01-22T14:34:34.434Z,73.55
2023-01-22T14:39:55.062Z,73.74
2023-01-22T14:45:17.358Z,73.86
2023-01-22T14:50:39.729Z,74.31
2023-01-22T14:56:01.085Z,74.29
2023-01-22T15:01:22.915Z,73.78
2023-01-22T15:06:44.428Z,73.54
2023-01-22T15:12:05.605Z,73.49
2023-01-22T15:17:26.391Z,73.49
2023-01-22T15:22:48.408Z,73.75
2023-01-22T15:28:09.566Z,73.72
2023-01-22T15:33:30.394Z,73.41
2023-01-22T15:38:51.114Z,73.16
2023-01-22T15:44:13.486Z,73.54
2023-01-22T15:49:34.982Z,73.06
2023-01-22T15:54:57.749Z,73.05
2023-01-22T16:00:19.101Z,72.67
2023-01-22T16:05:39.742Z,73.12
2023-01-22T16:11:00.699Z,73.31
2023-01-22T16:16:27.773Z,72.98
2023-01-22T16:21:48.883Z,73.25
2023-01-22T16:27:09.734Z,73.31
2023-01-22T16:32:31.476Z,73.36
2023-01-22T16:37:52.357Z,73.39
2023-01-22T16:43:12.965Z,73.32
2023-01-22T16:48:33.683Z,73.26
2023-01-22T16:53:55.518Z,78.21
2023-01-22T16:59:16.976Z,73.94
2023-01-22T17:04:37.830Z,73.37
2023-01-22T17:09:59.031Z,73.12
2023-01-22T17:15:20.664Z,73.02
2023-01-22T17:20:50.893Z,73.01
2023-01-22T17:26:19.170Z,73.26
2023-01-22T17:31:40.351Z,73.42
2023-01-22T17:37:01.071Z,73.51
2023-01-22T17:42:21.716Z,73.69
2023-01-22T17:47:44.300Z,73.54
2023-01-22T17:53:05.112Z,73.61
2023-01-22T17:58:25.902Z,73.91
2023-01-22T18:03:47.786Z,73.72
2023-01-22T18:09:10.112Z,73.72
2023-01-22T18:14:36.678Z,75.41
2023-01-22T18:19:57.557Z,74.13
2023-01-22T18:25:18.455Z,74.49
2023-01-22T18:30:39.981Z,73.93
2023-01-22T18:36:01.125Z,74.09
2023-01-22T18:41:24.409Z,74.67
2023-01-22T18:46:48.284Z,74.50
2023-01-22T18:52:09.246Z,74.48
2023-01-22T18:57:30.284Z,74.60
2023-01-22T19:02:55.968Z,74.68
2023-01-22T19:08:17.983Z,74.80
2023-01-22T19:13:40.345Z,74.70
2023-01-22T19:19:07.777Z,74.49
2023-01-22T19:24:28.786Z,74.95
2023-01-22T19:29:51.223Z,74.73
2023-01-22T19:35:13.486Z,74.64
2023-01-22T19:40:34.370Z,74.61
2023-01-22T19:45:56.173Z,74.63
2023-01-22T19:51:17.794Z,75.11
2023-01-22T19:56:41.588Z,75.07
2023-01-22T20:02:02.622Z,74.69
2023-01-22T20:07:25.181Z,74.43
2023-01-22T20:12:50.234Z,77.96
2023-01-22T20:18:11.396Z,76.15
2023-01-22T20:23:32.201Z,75.21
2023-01-22T20:28:53.057Z,75.34
2023-01-22T20:34:13.750Z,74.96
2023-01-22T20:39:34.647Z,74.68
2023-01-22T20:44:58.323Z,74.59
2023-01-22T20:50:19.420Z,74.31
2023-01-22T20:55:40.190Z,74.68
2023-01-22T21:01:15.983Z,74.40
2023-01-22T21:06:39.389Z,74.05
2023-01-22T21:12:00.645Z,74.27
2023-01-22T21:17:22.098Z,73.89
2023-01-22T21:22:43.079Z,74.23
2023-01-22T21:28:04.471Z,74.33
2023-01-22T21:33:25.834Z,74.33
2023-01-22T21:38:51.887Z,74.10
2023-01-22T21:44:35.951Z,74.40
2023-01-22T21:49:56.701Z,74.00
2023-01-22T21:55:17.346Z,74.17
2023-01-22T22:00:37.942Z,74.14
2023-01-22T22:06:02.121Z,73.97
2023-01-22T22:11:24.907Z,74.40
2023-01-22T22:16:46.487Z,73.76
2023-01-22T22:22:07.427Z,73.43
2023-01-22T22:27:28.109Z,73.45
2023-01-22T22:32:49.515Z,73.96
2023-01-22T22:38:10.181Z,74.56
2023-01-22T22:43:44.392Z,74.59
2023-01-22T22:49:06.241Z,74.41
2023-01-22T22:54:27.545Z,73.65
2023-01-22T22:59:48.541Z,73.62
2023-01-22T23:05:09.394Z,74.26
2023-01-22T23:10:30.676Z,73.72
2023-01-22T23:15:51.286Z,73.85
2023-01-22T23:21:17.896Z,73.87
2023-01-22T23:26:40.348Z,73.83
2023-01-22T23:32:01.498Z,73.68
2023-01-22T23:37:22.616Z,74.13
2023-01-22T23:42:48.074Z,73.79
2023-01-22T23:48:08.677Z,73.64
2023-01-22T23:53:29.545Z,73.85
2023-01-22T23:58:54.392Z,74.06
